Shangchuan Dao, China
Current Conditions -  °F | °C
As of 4:30 PM on Thursday 18 Dec 2014 (Local Time) from VMMC Reporting Station
Few Clouds Few Clouds  
Wind Chill: 57°   Ceiling: Unl
Heat Index: 57°   Visibility: 6mi
Dew Point: 34°   Wind: 15mph
Humidity: 41%   Direction: 350°N
Pressure: 30.24"   Gusts: NA
Location:  21.73°N, 112.77°E
Report Text: VMMC 180830Z 35013KT 9999 FEW030 14/01 Q1024 NOSIG
Loading
Personal Weather Stations






























Interactive Weather Map New forecast layout! Learn more

10-Day Weather Forecast

Advertisements
Track Severe Weather on mobile